Flight Track Log - Related Links

Times and Time Zones

All times are in EDT time to prevent confusion due to time zone crossing. See the N411WC flight status page for this flight to view local times or setup timezone preferences in your user account.

Time Position Orientation Groundspeed Altitude Reporting Facility
EDT Latitude Longitude Course Direction KTS MPH feet Rate Location/Type
Tue 09:09:03 AM 45.2800 -122.7594 77° East 156 180 1,700  Level Seattle Center
Tue 09:09:27 AM 45.2839 -122.7361 77° East 178 205 2,600 1,624 Climbing Seattle Center
Tue 09:10:28 AM 45.2778 -122.6619 97° East 209 241 4,000 1,140 Climbing Seattle Center
Tue 09:11:28 AM 45.3133 -122.5922 54° Northeast 230 265 4,900 1,289 Climbing Seattle Center
Tue 09:12:29 AM 45.3639 -122.5533 28° Northeast 203 234 6,600 1,742 Climbing Seattle Center
Tue 09:13:01 AM 45.3911 -122.5283 33° Northeast 209 241 7,600 1,869 Climbing Seattle Center
Tue 09:13:30 AM 45.4139 -122.5111 28° Northeast 213 245 8,500 1,800 Climbing Seattle Center
Tue 09:14:01 AM 45.4422 -122.4856 32° Northeast 211 243 9,400 1,761 Climbing Seattle Center
Tue 09:15:02 AM 45.4956 -122.4414 30° Northeast 219 252 11,200 1,835 Climbing Seattle Center
Tue 09:16:02 AM 45.5519 -122.3953 30° Northeast 233 268 13,100 1,884 Climbing Seattle Center
Tue 09:17:03 AM 45.5989 -122.3311 44° Northeast 238 274 15,000 1,770 Climbing Seattle Center
Tue 09:18:04 AM 45.6500 -122.2542 46° Northeast 251 289 16,700 1,438 Climbing Seattle Center
Tue 09:19:04 AM 45.6911 -122.1903 47° Northeast 262 302 17,900 1,388 Climbing Seattle Center
Tue 09:20:05 AM 45.7397 -122.1125 48° Northeast 263 303 19,500 1,339 Climbing Seattle Center
Tue 09:21:05 AM 45.7886 -122.0333 48° Northeast 263 303 20,600 1,289 Climbing Seattle Center
Tue 09:22:06 AM 45.8475 -121.9444 46° Northeast 265 305 22,100 1,328 Climbing Seattle Center
Tue 09:23:07 AM 45.8972 -121.8653 48° Northeast 266 306 23,300 1,140 Climbing Seattle Center
Tue 09:24:07 AM 45.9472 -121.7856 48° Northeast 267 307 24,400 843 Climbing Seattle Center
Tue 09:25:08 AM 45.9972 -121.7064 48° Northeast 267 307 25,000 295 Climbing Seattle Center
Tue 09:26:09 AM 46.0514 -121.6183 48° Northeast 287 330 25,000  Level Seattle Center
Tue 09:27:09 AM 46.1081 -121.5286 48° Northeast 298 343 25,000  Level Seattle Center
Tue 09:28:10 AM 46.1647 -121.4375 48° Northeast 300 345 25,000  Level Seattle Center
Tue 09:29:11 AM 46.2225 -121.3464 47° Northeast 305 351 25,000  Level Seattle Center
Tue 09:30:11 AM 46.2797 -121.2567 47° Northeast 305 351 25,000  Level Seattle Center
Tue 09:31:12 AM 46.3361 -121.1622 49° Northeast 307 353 25,000  Level Seattle Center
Tue 09:32:13 AM 46.3931 -121.0711 48° Northeast 307 353 25,000 149 Level Seattle Center
Tue 09:33:13 AM 46.4511 -120.9786 48° Northeast 308 354 25,300 397 Climbing Seattle Center
Tue 09:34:14 AM 46.5067 -120.8875 48° Northeast 304 350 25,800 492 Climbing Seattle Center
Tue 09:35:15 AM 46.5614 -120.8003 48° Northeast 295 339 26,300 492 Climbing Seattle Center
Tue 09:36:16 AM 46.6139 -120.7128 49° Northeast 291 335 26,800 347 Climbing Seattle Center
Tue 09:37:16 AM 46.6764 -120.6322 41° Northeast 297 342 27,000 99 Climbing Seattle Center
Tue 09:38:17 AM 46.7539 -120.5311 42° Northeast 311 358 27,000 246 Level Seattle Center
Tue 09:39:18 AM 46.8175 -120.4472 42° Northeast 313 360 27,500 545 Climbing Seattle Center
Tue 09:40:18 AM 46.8822 -120.3644 41° Northeast 311 358 28,100 595 Climbing Seattle Center
Tue 09:41:19 AM 46.9444 -120.2822 42° Northeast 307 353 28,700 443 Climbing Seattle Center
Tue 09:42:20 AM 47.0075 -120.1997 42° Northeast 305 351 29,000 148 Climbing Seattle Center
Tue 09:43:21 AM 47.0736 -120.1117 42° Northeast 326 375 29,000  Level Seattle Center
Tue 09:44:22 AM 47.1433 -120.0194 42° Northeast 336 387 29,000 -50 Level Seattle Center
Tue 09:45:22 AM 47.2153 -119.9250 42° Northeast 345 397 28,900  Descending Seattle Center
Tue 09:46:23 AM 47.2878 -119.8294 42° Northeast 349 402 29,000 49 Climbing Seattle Center
Tue 09:47:24 AM 47.3594 -119.7336 42° Northeast 349 402 29,000  Level Seattle Center
Tue 09:48:25 AM 47.4311 -119.6350 43° Northeast 350 403 29,000  Level Seattle Center
Tue 09:49:25 AM 47.5047 -119.5381 42° Northeast 353 406 29,000  Level Seattle Center
Tue 09:50:26 AM 47.5758 -119.4389 43° Northeast 353 406 29,000  Level Seattle Center
Tue 09:51:27 AM 47.6494 -119.3411 42° Northeast 354 407 29,000  Level Seattle Center
Tue 09:52:28 AM 47.7219 -119.2422 43° Northeast 354 407 29,000  Level Seattle Center
Tue 09:53:29 AM 47.7942 -119.1417 43° Northeast 355 409 29,000  Level Seattle Center
Tue 09:54:29 AM 47.8828 -119.0211 42° Northeast 357 411 29,000  Level Seattle Center
Tue 09:55:30 AM 47.9561 -118.9197 43° Northeast 358 412 29,000  Level Seattle Center
Tue 09:56:31 AM 48.0308 -118.8164 43° Northeast 363 418 29,000  Level Seattle Center
Tue 09:57:32 AM 48.1058 -118.7136 42° Northeast 367 422 29,000  Level Seattle Center
Tue 09:58:32 AM 48.1825 -118.6089 42° Northeast 373 429 29,000  Level Seattle Center
Tue 09:59:33 AM 48.2531 -118.5069 44° Northeast 364 419 29,000  Level Seattle Center
Tue 10:00:34 AM 48.3267 -118.4028 43° Northeast 360 414 29,000  Level Seattle Center
Tue 10:01:35 AM 48.3986 -118.3000 43° Northeast 360 414 29,000  Level Seattle Center
Tue 10:02:36 AM 48.4733 -118.1961 43° Northeast 361 415 29,000  Level Seattle Center
Tue 10:03:37 AM 48.5458 -118.0911 44° Northeast 361 415 29,000  Level Seattle Center
Tue 10:04:37 AM 48.6194 -117.9875 43° Northeast 361 415 29,000  Level Seattle Center
Tue 10:05:38 AM 48.6919 -117.8814 44° Northeast 361 415 29,000  Level Seattle Center
Tue 10:06:36 AM 48.7667 -117.7500 49° Northeast 360 414 29,000  Level Vancouver Center
Tue 10:07:36 AM 48.8167 -117.6333 57° Northeast 360 414 29,000  Level Vancouver Center
Tue 10:08:36 AM 48.9000 -117.5500 33° Northeast 350 403 29,000  Level Vancouver Center
Tue 10:09:36 AM 48.9667 -117.4333 49° Northeast 350 403 29,000  Level Vancouver Center
Tue 10:10:36 AM 49.0333 -117.3333 45° Northeast 350 403 29,000  Level Vancouver Center
Tue 10:11:36 AM 49.1000 -117.2167 49° Northeast 340 391 29,000  Level Vancouver Center
Tue 10:12:20 AM 49.1333 -117.2167 360° North 340 391 29,000  Level Edmonton Center
Tue 10:13:36 AM 49.2333 -117.0167 53° Northeast 340 391 29,000  Level Vancouver Center
Tue 10:14:36 AM 49.3167 -116.9333 33° Northeast 340 391 29,000 -300 Level Vancouver Center
Tue 10:15:36 AM 49.3667 -116.8167 57° Northeast 350 403 28,400 -650 Descending Vancouver Center
Tue 10:16:36 AM 49.4500 -116.7000 42° Northeast 360 414 27,700 -700 Descending Vancouver Center
Tue 10:17:36 AM 49.5167 -116.6167 39° Northeast 360 414 27,000 -350 Descending Vancouver Center
Tue 10:18:36 AM 49.5833 -116.5000 49° Northeast 350 403 27,000  Level Vancouver Center
Tue 10:19:36 AM 49.6500 -116.3833 49° Northeast 340 391 27,000  Level Vancouver Center
Tue 10:20:36 AM 49.7333 -116.3000 33° Northeast 330 380 27,000  Level Vancouver Center
Tue 10:21:37 AM 49.7833 -116.1833 56° Northeast 330 380 27,000  Level Vancouver Center
Tue 10:22:37 AM 49.8500 -116.1000 39° Northeast 330 380 27,000  Level Vancouver Center
Tue 10:23:37 AM 49.9167 -116.0167 39° Northeast 330 380 27,000  Level Vancouver Center
Tue 10:24:37 AM 49.9833 -115.9000 48° Northeast 330 380 27,000  Level Vancouver Center
Tue 10:25:37 AM 50.0500 -115.8000 44° Northeast 320 368 27,000  Level Vancouver Center
Tue 10:26:37 AM 50.1000 -115.7000 52° Northeast 320 368 27,000  Level Vancouver Center
Tue 10:27:37 AM 50.1667 -115.6000 44° Northeast 320 368 27,000  Level Vancouver Center
Tue 10:28:37 AM 50.2333 -115.5167 39° Northeast 320 368 27,000  Level Vancouver Center
Tue 10:29:37 AM 50.2833 -115.4000 56° Northeast 320 368 27,000  Level Vancouver Center
Tue 10:30:20 AM 50.3167 -115.4000 360° North 320 368 27,000  Level Edmonton Center
Tue 10:31:20 AM 50.3833 -115.3000 44° Northeast 320 368 27,000 -100 Level Edmonton Center
Tue 10:32:20 AM 50.4333 -115.1833 56° Northeast 320 368 26,800 -1,400 Descending Edmonton Center
Tue 10:33:20 AM 50.5000 -115.0833 44° Northeast 330 380 24,200 -2,950 Descending Edmonton Center
Tue 10:34:20 AM 50.5833 -114.9667 42° Northeast 350 403 20,900 -3,100 Descending Edmonton Center
Tue 10:35:20 AM 50.6333 -114.8500 56° Northeast 350 403 18,000 -2,950 Descending Edmonton Center
Tue 10:36:20 AM 50.6667 -114.7167 68° East 330 380 15,000 -2,350 Descending Edmonton Center
Tue 10:37:20 AM 50.7167 -114.6000 56° Northeast 290 334 13,300 -1,200 Descending Edmonton Center
Tue 10:38:20 AM 50.7667 -114.5000 52° Northeast 300 345 12,600 -750 Descending Edmonton Center
Tue 10:39:20 AM 50.8167 -114.4000 52° Northeast 300 345 11,800 -850 Descending Edmonton Center
Tue 10:40:20 AM 50.8833 -114.3167 38° Northeast 290 334 10,900 -850 Descending Edmonton Center
Tue 10:41:20 AM 50.9500 -114.2667 25° Northeast 280 322 10,100 -1,300 Descending Edmonton Center
Tue 10:42:20 AM 51.0333 -114.2667 360° North 250 288 8,300 -1,050 Descending Edmonton Center
Tue 10:43:20 AM 51.0833 -114.3000 337° Northwest 240 276 8,000 -100 Descending Edmonton Center
Tue 10:44:20 AM 51.1167 -114.4000 298° West 230 265 8,100 50 Climbing Edmonton Center
Tue 10:45:20 AM 51.1667 -114.4000 360° North 240 276 8,100 -250 Level Edmonton Center
Tue 10:46:20 AM 51.2000 -114.3500 43° Northeast 210 242 7,600 -750 Descending Edmonton Center
Tue 10:47:20 AM 51.1667 -114.2667 123° Southeast 190 219 6,600 -1,000 Descending Edmonton Center
Tue 10:48:20 AM 51.1333 -114.2000 129° Southeast 160 184 5,600 -900 Descending Edmonton Center
Tue 10:49:20 AM 51.1333 -114.1500 90° East 150 173 4,800 -667 Descending Edmonton Center
Tue 10:51:20 AM 51.0833 -114.0333 124° Southeast 60 69 3,600 -200 Descending Edmonton Center
Tue 10:55:20 AM 51.0667 -114.0333 180° South 20 23 3,600  Level Edmonton Center

Login

Don't have an account? Register now (free) for customized features, flight alerts, and more!